Terminal Aerodrome Forecast
Issued by NWS Cleveland, OH

Home | Current Version | Previous Version | Text Only | Print | Product List | Glossary On
Versions: 1 2 3 4 5 6 7 8 9 10 11 12 13 14 15 16 17
000
FTUS41 KCLE 261700
TAFERI
TAF
KERI 261724Z 2618/2718 23008KT P6SM VCTS BKN040CB
     FM270300 23010KT P6SM BKN040
     FM271400 25008KT P6SM VCTS BKN030CB=

USA.gov is the U.S. government's official web portal to all federal, state and local government web resources and services.